Time;durP1;ratioP1;P1;durP2;ratioP2;P2;SDS_P1;SDS_P2;PMS_P1;PMS_P2;Temp;Humidity;BMP_temperature;BMP_pressure;BME280_temperature;BME280_humidity;BME280_pressure;Samples;Min_cycle;Max_cycle;Signal;HPM_P1;HPM_P2
2023/01/06 00:00:16;;;;;;;1999.90;999.90;;;11.40;99.90;;;;;;5013166;28;20169;-70
2023/01/06 00:02:44;;;;;;;1999.90;999.90;;;11.40;99.90;;;;;;5013074;28;20420;-70
2023/01/06 00:05:09;;;;;;;1999.90;999.90;;;11.40;99.90;;;;;;5012983;28;20197;-70
2023/01/06 00:07:35;;;;;;;1999.90;999.90;;;11.40;99.90;;;;;;5012927;28;20494;-70
2023/01/06 00:10:01;;;;;;;1999.90;999.90;;;11.40;99.90;;;;;;5013798;28;20172;-71
2023/01/06 00:12:26;;;;;;;1999.90;999.90;;;11.40;99.90;;;;;;5018968;28;20169;-71
2023/01/06 00:14:52;;;;;;;1999.90;999.90;;;11.40;99.90;;;;;;5022335;28;20297;-70
2023/01/06 00:17:18;;;;;;;1999.90;999.90;;;11.30;99.90;;;;;;5023111;28;20174;-71
2023/01/06 00:19:43;;;;;;;1999.90;999.90;;;11.30;99.90;;;;;;5014309;28;20645;-70
2023/01/06 00:22:09;;;;;;;1999.90;999.90;;;11.30;99.90;;;;;;5012820;28;20176;-70
2023/01/06 00:24:35;;;;;;;1999.90;999.90;;;11.30;99.90;;;;;;5012845;28;20271;-70
2023/01/06 00:27:00;;;;;;;1999.90;999.90;;;11.40;99.90;;;;;;5012615;28;20234;-70
2023/01/06 00:29:26;;;;;;;1999.90;999.90;;;11.30;99.90;;;;;;5012541;28;20167;-70
2023/01/06 00:31:52;;;;;;;1999.90;999.90;;;11.30;99.90;;;;;;5012800;28;20203;-70
2023/01/06 00:34:18;;;;;;;1999.90;999.90;;;11.30;99.90;;;;;;5012564;28;20993;-70
2023/01/06 00:36:44;;;;;;;1999.90;999.90;;;11.30;99.90;;;;;;5012502;28;20972;-70
2023/01/06 00:39:12;;;;;;;1999.90;999.90;;;11.30;99.90;;;;;;5012654;28;20521;-70
2023/01/06 00:44:23;;;;;;;1999.90;999.90;;;11.30;99.90;;;;;;5012785;28;20829;-70
2023/01/06 00:46:48;;;;;;;1999.90;999.90;;;11.30;99.90;;;;;;5012354;28;20411;-70
2023/01/06 00:49:14;;;;;;;1999.90;999.90;;;11.30;99.90;;;;;;5011763;28;20310;-71
2023/01/06 00:51:40;;;;;;;1999.90;999.90;;;11.40;99.90;;;;;;5012380;28;20176;-70
2023/01/06 00:54:07;;;;;;;1999.90;999.90;;;11.40;99.90;;;;;;5012291;28;20201;-70
2023/01/06 00:56:37;;;;;;;1999.90;999.90;;;11.40;99.90;;;;;;5012119;28;20805;-70
2023/01/06 00:59:05;;;;;;;1999.90;999.90;;;11.50;99.90;;;;;;5012078;28;20432;-70
2023/01/06 01:01:32;;;;;;;1999.90;999.90;;;11.50;99.90;;;;;;5012178;28;20427;-70
2023/01/06 01:03:58;;;;;;;1999.90;999.90;;;11.40;99.90;;;;;;5012324;28;20424;-70
2023/01/06 01:06:23;;;;;;;1999.90;999.90;;;11.50;99.90;;;;;;5012134;28;20439;-70
2023/01/06 01:08:57;;;;;;;1999.90;999.90;;;11.50;99.90;;;;;;5011942;28;20191;-70
2023/01/06 01:14:09;;;;;;;1999.90;999.90;;;11.50;99.90;;;;;;5012132;28;20541;-70
2023/01/06 01:16:35;;;;;;;1999.90;999.90;;;11.50;99.90;;;;;;5012015;28;20407;-70
2023/01/06 01:19:01;;;;;;;1999.90;999.90;;;11.50;99.90;;;;;;5011932;28;20443;-70
2023/01/06 01:21:26;;;;;;;1999.90;999.90;;;11.50;99.90;;;;;;5012068;28;20418;-70
2023/01/06 01:23:52;;;;;;;1999.90;999.90;;;11.50;99.90;;;;;;5011920;28;20205;-70
2023/01/06 01:26:17;;;;;;;1999.90;999.90;;;11.50;99.90;;;;;;5011972;28;20177;-70
2023/01/06 01:28:43;;;;;;;1999.90;999.90;;;11.50;99.90;;;;;;5011835;28;20552;-70
2023/01/06 01:31:09;;;;;;;1999.90;999.90;;;11.50;99.90;;;;;;5012017;28;20798;-70
2023/01/06 01:33:36;;;;;;;1999.90;999.90;;;11.50;99.90;;;;;;5011820;28;20542;-70
2023/01/06 01:36:06;;;;;;;1999.90;999.90;;;11.50;99.90;;;;;;5011913;28;20814;-70
2023/01/06 01:38:32;;;;;;;1999.90;999.90;;;11.50;99.90;;;;;;5011670;28;20415;-70
2023/01/06 01:40:58;;;;;;;1999.90;999.90;;;11.50;99.90;;;;;;5011883;28;20902;-70
2023/01/06 01:43:23;;;;;;;1999.90;999.90;;;11.50;99.90;;;;;;5011825;28;20272;-70
2023/01/06 01:45:52;;;;;;;1999.90;999.90;;;11.50;99.90;;;;;;5011870;28;20177;-70
2023/01/06 01:48:33;;;;;;;1999.90;999.90;;;11.50;99.90;;;;;;5011701;28;20165;-71
2023/01/06 01:51:03;;;;;;;1999.90;999.90;;;11.50;99.90;;;;;;5011900;28;20431;-70
2023/01/06 01:53:34;;;;;;;1999.90;999.90;;;11.50;99.90;;;;;;5011755;28;20463;-70
2023/01/06 01:56:03;;;;;;;1999.90;999.90;;;11.50;99.90;;;;;;5011590;28;20467;-70
2023/01/06 01:58:37;;;;;;;1999.90;999.90;;;11.50;99.90;;;;;;5011778;28;20535;-70
2023/01/06 02:01:04;;;;;;;1999.90;999.90;;;11.60;99.90;;;;;;5015155;28;20439;-70
2023/01/06 02:03:30;;;;;;;1999.90;999.90;;;11.50;99.90;;;;;;5015367;28;20820;-70
2023/01/06 02:06:00;;;;;;;1999.90;999.90;;;11.50;99.90;;;;;;5015188;28;20420;-70
2023/01/06 02:08:39;;;;;;;1999.90;999.90;;;11.60;99.90;;;;;;5015155;28;20209;-70
2023/01/06 02:11:05;;;;;;;1999.90;999.90;;;11.50;99.90;;;;;;5015272;28;20963;-70
2023/01/06 02:13:37;;;;;;;1999.90;999.90;;;11.60;99.90;;;;;;5015007;28;20502;-69
2023/01/06 02:16:27;;;;;;;1999.90;999.90;;;11.50;99.90;;;;;;5015010;28;20466;-70
2023/01/06 02:19:18;;;;;;;1999.90;999.90;;;11.60;99.90;;;;;;5015626;28;20389;-71
2023/01/06 02:21:55;;;;;;;1999.90;999.90;;;11.60;99.90;;;;;;5015055;28;20427;-71
2023/01/06 02:25:06;;;;;;;1999.90;999.90;;;11.60;99.90;;;;;;5015296;28;20438;-71
2023/01/06 02:27:41;;;;;;;1999.90;999.90;;;11.70;99.90;;;;;;5005218;28;20836;-71
2023/01/06 02:30:09;;;;;;;1999.90;999.90;;;11.60;99.90;;;;;;5015416;28;20419;-71
2023/01/06 02:32:47;;;;;;;1999.90;999.90;;;11.70;99.90;;;;;;5015069;28;20401;-71
2023/01/06 02:35:35;;;;;;;1999.90;999.90;;;11.70;99.90;;;;;;5015106;28;20511;-71
2023/01/06 02:38:22;;;;;;;1999.90;999.90;;;11.70;99.90;;;;;;5014524;28;20444;-71
2023/01/06 02:41:06;;;;;;;1999.90;999.90;;;11.60;99.90;;;;;;5015411;28;20455;-71
2023/01/06 02:43:57;;;;;;;1999.90;999.90;;;11.60;99.90;;;;;;5014681;28;20438;-71
2023/01/06 02:46:37;;;;;;;1999.90;999.90;;;11.70;99.90;;;;;;5015297;28;20516;-71
2023/01/06 02:49:11;;;;;;;1999.90;999.90;;;11.70;99.90;;;;;;5014742;28;20423;-71
2023/01/06 02:52:03;;;;;;;1999.90;999.90;;;11.70;99.90;;;;;;5015696;28;20972;-71
2023/01/06 02:54:53;;;;;;;1999.90;999.90;;;11.60;99.90;;;;;;5014962;28;20459;-71
2023/01/06 02:58:00;;;;;;;1999.90;999.90;;;11.60;99.90;;;;;;5014522;28;20406;-71
2023/01/06 03:00:39;;;;;;;1999.90;999.90;;;11.60;99.90;;;;;;5014612;28;20448;-71
2023/01/06 03:03:16;;;;;;;1999.90;999.90;;;11.80;99.90;;;;;;5014244;28;20431;-70
2023/01/06 03:05:45;;;;;;;1999.90;999.90;;;11.60;99.90;;;;;;5014108;28;20469;-70
2023/01/06 03:08:17;;;;;;;1999.90;999.90;;;11.60;99.90;;;;;;5014009;28;20509;-70
2023/01/06 03:10:45;;;;;;;1999.90;999.90;;;11.50;99.90;;;;;;5013580;28;20406;-70
2023/01/06 03:13:38;;;;;;;1999.90;999.90;;;11.50;99.90;;;;;;5013913;28;20522;-70
2023/01/06 03:16:05;;;;;;;1999.90;999.90;;;11.50;99.90;;;;;;5013940;28;20408;-70
2023/01/06 03:18:31;;;;;;;1999.90;999.90;;;11.50;99.90;;;;;;5013965;28;20412;-70
2023/01/06 03:21:02;;;;;;;1999.90;999.90;;;11.50;99.90;;;;;;5013853;28;20431;-70
2023/01/06 03:23:28;;;;;;;1999.90;999.90;;;11.50;99.90;;;;;;5013843;28;21143;-70
2023/01/06 03:25:53;;;;;;;1999.90;999.90;;;11.50;99.90;;;;;;5013749;28;20436;-70
2023/01/06 03:28:19;;;;;;;1999.90;999.90;;;11.50;99.90;;;;;;5013658;28;20179;-70
2023/01/06 03:30:52;;;;;;;1999.90;999.90;;;11.50;99.90;;;;;;5013723;28;20179;-70
2023/01/06 03:33:41;;;;;;;1999.90;999.90;;;11.50;99.90;;;;;;5013664;28;20204;-70
2023/01/06 03:36:32;;;;;;;1999.90;999.90;;;11.50;99.90;;;;;;5013519;28;20412;-70
2023/01/06 03:39:15;;;;;;;1999.90;999.90;;;11.50;99.90;;;;;;5013889;28;20403;-70
2023/01/06 03:44:50;;;;;;;1999.90;999.90;;;11.50;99.90;;;;;;5024347;28;20810;-71
2023/01/06 03:47:34;;;;;;;1999.90;999.90;;;11.50;99.90;;;;;;5018004;28;20411;-71
2023/01/06 03:50:16;;;;;;;1999.90;999.90;;;11.50;99.90;;;;;;5022161;28;20415;-71
2023/01/06 03:52:49;;;;;;;1999.90;999.90;;;11.50;99.90;;;;;;5022872;28;20419;-71
2023/01/06 03:55:22;;;;;;;1999.90;999.90;;;11.50;99.90;;;;;;5023228;28;20447;-70
2023/01/06 03:57:54;;;;;;;1999.90;999.90;;;11.50;99.90;;;;;;5021024;28;20447;-71
2023/01/06 04:00:23;;;;;;;1999.90;999.90;;;11.50;99.90;;;;;;5023852;28;20412;-71
2023/01/06 04:02:49;;;;;;;1999.90;999.90;;;11.50;99.90;;;;;;5022128;28;20408;-71
2023/01/06 04:05:24;;;;;;;1999.90;999.90;;;11.50;99.90;;;;;;5016432;28;20900;-71
2023/01/06 04:07:50;;;;;;;1999.90;999.90;;;11.50;99.90;;;;;;5013011;28;20410;-70
2023/01/06 04:10:17;;;;;;;1999.90;999.90;;;11.50;99.90;;;;;;5012924;28;20408;-70
2023/01/06 04:12:43;;;;;;;1999.90;999.90;;;11.50;99.90;;;;;;5012894;28;20435;-70
2023/01/06 04:15:10;;;;;;;1999.90;999.90;;;11.60;99.90;;;;;;5012846;28;20424;-70
2023/01/06 04:17:37;;;;;;;1999.90;999.90;;;11.60;99.90;;;;;;5012761;28;20179;-70
2023/01/06 04:20:03;;;;;;;1999.90;999.90;;;11.60;99.90;;;;;;5012525;28;20423;-70
2023/01/06 04:22:29;;;;;;;1999.90;999.90;;;11.70;99.90;;;;;;5012410;28;20424;-70
2023/01/06 04:24:54;;;;;;;1999.90;999.90;;;11.70;99.90;;;;;;5013668;28;20937;-70
2023/01/06 04:27:20;;;;;;;1999.90;999.90;;;11.60;99.90;;;;;;5024671;28;20658;-70
2023/01/06 04:29:46;;;;;;;1999.90;999.90;;;11.60;99.90;;;;;;5012531;28;20172;-71
2023/01/06 04:32:11;;;;;;;1999.90;999.90;;;11.60;99.90;;;;;;5012593;28;20273;-70
2023/01/06 04:34:37;;;;;;;1999.90;999.90;;;11.60;99.90;;;;;;5012507;28;20332;-70
2023/01/06 04:37:02;;;;;;;1999.90;999.90;;;11.50;99.90;;;;;;5012462;28;20189;-70
2023/01/06 04:39:28;;;;;;;1999.90;999.90;;;11.50;99.90;;;;;;5012540;28;20661;-70
2023/01/06 04:41:53;;;;;;;1999.90;999.90;;;11.60;99.90;;;;;;5012511;28;20169;-70
2023/01/06 04:44:19;;;;;;;1999.90;999.90;;;11.60;99.90;;;;;;5012362;28;20615;-70
2023/01/06 04:46:45;;;;;;;1999.90;999.90;;;11.50;99.90;;;;;;5012318;28;20181;-70
2023/01/06 04:49:11;;;;;;;1999.90;999.90;;;11.60;99.90;;;;;;5012346;28;20466;-70
2023/01/06 04:51:36;;;;;;;1999.90;999.90;;;11.60;99.90;;;;;;5012410;28;20173;-70
2023/01/06 04:54:02;;;;;;;1999.90;999.90;;;11.60;99.90;;;;;;5012440;28;20205;-70
2023/01/06 04:56:28;;;;;;;1999.90;999.90;;;11.60;99.90;;;;;;5012199;28;20182;-70
2023/01/06 04:58:57;;;;;;;1999.90;999.90;;;11.50;99.90;;;;;;5012110;28;20179;-70
2023/01/06 05:01:25;;;;;;;1999.90;999.90;;;11.50;99.90;;;;;;5012297;28;20252;-70
2023/01/06 05:03:51;;;;;;;1999.90;999.90;;;11.50;99.90;;;;;;5012094;28;20497;-70
2023/01/06 05:06:17;;;;;;;1999.90;999.90;;;11.50;99.90;;;;;;5012129;28;20412;-70
2023/01/06 05:08:44;;;;;;;1999.90;999.90;;;11.50;99.90;;;;;;5011992;28;20499;-70
2023/01/06 05:11:18;;;;;;;1999.90;999.90;;;11.50;99.90;;;;;;5012260;28;20902;-70
2023/01/06 05:13:44;;;;;;;1999.90;999.90;;;11.40;99.90;;;;;;5012073;28;20455;-70
2023/01/06 05:16:22;;;;;;;1999.90;999.90;;;11.40;99.90;;;;;;5012053;28;20411;-70
2023/01/06 05:18:48;;;;;;;1999.90;999.90;;;11.50;99.90;;;;;;5011981;28;20665;-70
2023/01/06 05:21:14;;;;;;;1999.90;999.90;;;11.40;99.90;;;;;;5012086;28;20399;-70
2023/01/06 05:23:39;;;;;;;1999.90;999.90;;;11.40;99.90;;;;;;5012038;28;20254;-70
2023/01/06 05:26:06;;;;;;;1999.90;999.90;;;11.40;99.90;;;;;;5011971;28;20694;-70
2023/01/06 05:28:32;;;;;;;1999.90;999.90;;;11.40;99.90;;;;;;5011863;28;20181;-70
2023/01/06 05:30:59;;;;;;;1999.90;999.90;;;11.40;99.90;;;;;;5012012;28;20415;-70
2023/01/06 05:33:25;;;;;;;1999.90;999.90;;;11.40;99.90;;;;;;5011953;28;20523;-69
2023/01/06 05:35:57;;;;;;;1999.90;999.90;;;11.40;99.90;;;;;;5015274;28;20882;-70
2023/01/06 05:38:22;;;;;;;1999.90;999.90;;;11.40;99.90;;;;;;5015723;28;20571;-70
2023/01/06 05:40:51;;;;;;;1999.90;999.90;;;11.40;99.90;;;;;;5015699;28;20400;-70
2023/01/06 05:43:17;;;;;;;1999.90;999.90;;;11.20;99.90;;;;;;5015676;28;20173;-70
2023/01/06 05:45:43;;;;;;;1999.90;999.90;;;11.30;99.90;;;;;;5015666;28;20419;-70
2023/01/06 05:48:09;;;;;;;1999.90;999.90;;;11.30;99.90;;;;;;5015357;28;20184;-70
2023/01/06 05:50:34;;;;;;;1999.90;999.90;;;11.30;99.90;;;;;;5015675;28;20228;-70
2023/01/06 05:53:00;;;;;;;1999.90;999.90;;;11.40;99.90;;;;;;5015516;28;20614;-70
2023/01/06 05:55:25;;;;;;;1999.90;999.90;;;11.30;99.90;;;;;;5015327;28;20194;-70
2023/01/06 05:57:51;;;;;;;1999.90;999.90;;;11.40;99.90;;;;;;5015299;28;20664;-71
2023/01/06 06:00:17;;;;;;;1999.90;999.90;;;11.40;99.90;;;;;;5015339;28;20231;-70
2023/01/06 06:02:43;;;;;;;1999.90;999.90;;;11.30;99.90;;;;;;5015391;28;20520;-70
2023/01/06 06:05:09;;;;;;;1999.90;999.90;;;11.40;99.90;;;;;;5022434;28;20542;-71
2023/01/06 06:07:35;;;;;;;1999.90;999.90;;;11.40;99.90;;;;;;5017566;28;20179;-70
2023/01/06 06:10:00;;;;;;;1999.90;999.90;;;11.40;99.90;;;;;;5015052;28;20173;-69
2023/01/06 06:12:26;;;;;;;1999.90;999.90;;;11.40;99.90;;;;;;5015223;28;20588;-70
2023/01/06 06:14:52;;;;;;;1999.90;999.90;;;11.40;99.90;;;;;;5015187;28;20306;-70
2023/01/06 06:17:17;;;;;;;1999.90;999.90;;;11.40;99.90;;;;;;5014962;28;20219;-70
2023/01/06 06:19:43;;;;;;;1999.90;999.90;;;11.40;99.90;;;;;;5014905;28;20204;-70
2023/01/06 06:22:08;;;;;;;1999.90;999.90;;;11.40;99.90;;;;;;5015010;28;20701;-70
2023/01/06 06:24:34;;;;;;;1999.90;999.90;;;11.40;99.90;;;;;;5014870;28;20203;-70
2023/01/06 06:26:59;;;;;;;1999.90;999.90;;;11.40;99.90;;;;;;5014873;28;20183;-70
2023/01/06 06:29:25;;;;;;;1999.90;999.90;;;11.40;99.90;;;;;;5018504;28;20176;-70
2023/01/06 06:31:51;;;;;;;1999.90;999.90;;;11.40;99.90;;;;;;5025360;28;20192;-70
2023/01/06 06:34:16;;;;;;;1999.90;999.90;;;11.40;99.90;;;;;;5025642;28;20762;-71
2023/01/06 06:36:42;;;;;;;1999.90;999.90;;;11.40;99.90;;;;;;5026507;28;20176;-71
2023/01/06 06:39:07;;;;;;;1999.90;999.90;;;11.40;99.90;;;;;;5025010;28;20184;-70
2023/01/06 06:41:33;;;;;;;1999.90;999.90;;;11.40;99.90;;;;;;5027147;28;20165;-70
2023/01/06 06:43:59;;;;;;;1999.90;999.90;;;11.30;99.90;;;;;;5028799;28;20193;-71
2023/01/06 06:46:24;;;;;;;1999.90;999.90;;;11.40;99.90;;;;;;5024501;28;20176;-70
2023/01/06 06:48:50;;;;;;;1999.90;999.90;;;11.30;99.90;;;;;;5027703;28;20177;-70
2023/01/06 06:51:19;;;;;;;1999.90;999.90;;;11.40;99.90;;;;;;5028191;28;20176;-70
2023/01/06 06:53:45;;;;;;;1999.90;999.90;;;11.40;99.90;;;;;;5019335;28;20259;-70
2023/01/06 06:56:11;;;;;;;1999.90;999.90;;;11.40;99.90;;;;;;5014209;28;20431;-70
2023/01/06 06:58:37;;;;;;;1999.90;999.90;;;11.40;99.90;;;;;;5014172;28;20411;-70
2023/01/06 07:01:08;;;;;;;1999.90;999.90;;;11.40;99.90;;;;;;5014276;28;20408;-69
2023/01/06 07:03:34;;;;;;;1999.90;999.90;;;11.40;99.90;;;;;;5014138;28;20278;-69
2023/01/06 07:06:02;;;;;;;1999.90;999.90;;;11.40;99.90;;;;;;5014062;28;20492;-69
2023/01/06 07:08:27;;;;;;;1999.90;999.90;;;11.40;99.90;;;;;;5013953;28;20172;-69
2023/01/06 07:10:53;;;;;;;1999.90;999.90;;;11.40;99.90;;;;;;5024791;28;20506;-70
2023/01/06 07:13:18;;;;;;;1999.90;999.90;;;11.70;99.90;;;;;;5024683;28;20196;-70
2023/01/06 07:15:44;;;;;;;1999.90;999.90;;;11.40;99.90;;;;;;5014117;28;20181;-70
2023/01/06 07:18:10;;;;;;;1999.90;999.90;;;11.40;99.90;;;;;;5013726;28;20200;-70
2023/01/06 07:20:37;;;;;;;1999.90;999.90;;;11.40;99.90;;;;;;5013876;28;20251;-70
2023/01/06 07:23:03;;;;;;;1999.90;999.90;;;11.60;99.90;;;;;;5013809;28;20541;-70
2023/01/06 07:25:30;;;;;;;1999.90;999.90;;;11.40;99.90;;;;;;5013868;28;20411;-70
2023/01/06 07:27:57;;;;;;;1999.90;999.90;;;11.40;99.90;;;;;;5013625;28;20820;-70
2023/01/06 07:30:24;;;;;;;1999.90;999.90;;;11.40;99.90;;;;;;5013687;28;20416;-70
2023/01/06 07:32:50;;;;;;;1999.90;999.90;;;11.40;99.90;;;;;;5013755;28;21084;-70
2023/01/06 07:35:16;;;;;;;1999.90;999.90;;;11.40;99.90;;;;;;5013562;28;20442;-70
2023/01/06 07:37:42;;;;;;;1999.90;999.90;;;11.40;99.90;;;;;;5018070;28;20256;-71
2023/01/06 07:40:08;;;;;;;1999.90;999.90;;;11.40;99.90;;;;;;5022309;28;20451;-71
2023/01/06 07:42:37;;;;;;;1999.90;999.90;;;11.50;99.90;;;;;;5022989;28;20231;-70
2023/01/06 07:45:03;;;;;;;1999.90;999.90;;;11.40;99.90;;;;;;5022376;28;20460;-70
2023/01/06 07:47:29;;;;;;;1999.90;999.90;;;11.40;99.90;;;;;;5022839;28;20953;-70
2023/01/06 07:49:55;;;;;;;1999.90;999.90;;;11.50;99.90;;;;;;5022671;28;20422;-71
2023/01/06 07:52:20;;;;;;;1999.90;999.90;;;11.50;99.90;;;;;;5023618;28;20415;-70
2023/01/06 07:54:46;;;;;;;1999.90;999.90;;;11.50;99.90;;;;;;5022871;28;20212;-71
2023/01/06 07:57:12;;;;;;;1999.90;999.90;;;11.50;99.90;;;;;;5019864;28;20181;-70
2023/01/06 07:59:37;;;;;;;1999.90;999.90;;;11.50;99.90;;;;;;5014813;28;20235;-70
2023/01/06 08:02:03;;;;;;;1999.90;999.90;;;11.60;99.90;;;;;;5015464;28;20170;-70
2023/01/06 08:04:28;;;;;;;1999.90;999.90;;;11.50;99.90;;;;;;5014314;28;20267;-70
2023/01/06 08:06:54;;;;;;;1999.90;999.90;;;11.50;99.90;;;;;;5014434;28;20179;-70
2023/01/06 08:09:20;;;;;;;1999.90;999.90;;;11.60;99.90;;;;;;5014760;28;20259;-70
2023/01/06 08:11:45;;;;;;;1999.90;999.90;;;11.60;99.90;;;;;;5015682;28;20184;-70
2023/01/06 08:14:12;;;;;;;1999.90;999.90;;;11.60;99.90;;;;;;5012732;28;20212;-70
2023/01/06 08:16:38;;;;;;;1999.90;999.90;;;11.60;99.90;;;;;;5025239;28;20173;-69
2023/01/06 08:19:04;;;;;;;1999.90;999.90;;;11.60;99.90;;;;;;5022314;28;20400;-71
2023/01/06 08:21:30;;;;;;;1999.90;999.90;;;11.70;99.90;;;;;;5019630;28;20874;-70
2023/01/06 08:23:55;;;;;;;1999.90;999.90;;;11.70;99.90;;;;;;5020359;28;20232;-71
2023/01/06 08:26:21;;;;;;;1999.90;999.90;;;11.70;99.90;;;;;;5037172;28;20194;-72
2023/01/06 08:28:46;;;;;;;1999.90;999.90;;;11.60;99.90;;;;;;5037469;28;20251;-72
2023/01/06 08:31:17;;;;;;;1999.90;999.90;;;11.60;99.90;;;;;;5036667;28;20176;-72
2023/01/06 08:33:43;;;;;;;1999.90;999.90;;;11.60;99.90;;;;;;5036265;28;20605;-72
2023/01/06 08:36:13;;;;;;;1999.90;999.90;;;11.60;99.90;;;;;;5036200;28;20414;-72
2023/01/06 08:38:39;;;;;;;1999.90;999.90;;;11.70;99.90;;;;;;5037595;28;20822;-72
2023/01/06 08:41:05;;;;;;;1999.90;999.90;;;11.60;99.90;;;;;;5036115;28;20427;-72
2023/01/06 08:43:30;;;;;;;1999.90;999.90;;;11.60;99.90;;;;;;5035096;28;20415;-72
2023/01/06 08:46:05;;;;;;;1999.90;999.90;;;11.70;99.90;;;;;;5035772;28;20485;-72
2023/01/06 08:48:32;;;;;;;1999.90;999.90;;;11.70;99.90;;;;;;5036036;28;20257;-72
2023/01/06 08:51:16;;;;;;;1999.90;999.90;;;11.70;99.90;;;;;;5034715;28;20404;-72
2023/01/06 08:53:42;;;;;;;1999.90;999.90;;;11.70;99.90;;;;;;5038148;28;20473;-72
2023/01/06 08:56:16;;;;;;;1999.90;999.90;;;11.70;99.90;;;;;;5039096;28;20988;-72
2023/01/06 08:58:42;;;;;;;1999.90;999.90;;;11.70;99.90;;;;;;5037049;28;20416;-72
2023/01/06 09:01:16;;;;;;;1999.90;999.90;;;11.70;99.90;;;;;;5035083;28;20403;-72
2023/01/06 09:03:41;;;;;;;1999.90;999.90;;;11.80;99.90;;;;;;5038721;28;20203;-72
2023/01/06 09:06:07;;;;;;;1999.90;999.90;;;11.80;99.90;;;;;;5035202;28;20465;-72
2023/01/06 09:08:32;;;;;;;1999.90;999.90;;;11.80;99.90;;;;;;5035604;28;20175;-72
2023/01/06 09:11:07;;;;;;;1999.90;999.90;;;11.80;99.90;;;;;;5033846;28;20179;-72
2023/01/06 09:13:33;;;;;;;1999.90;999.90;;;11.70;99.90;;;;;;5034702;28;20218;-72
2023/01/06 09:15:59;;;;;;;1999.90;999.90;;;11.50;99.90;;;;;;5035094;28;20430;-72
2023/01/06 09:18:24;;;;;;;1999.90;999.90;;;11.50;99.90;;;;;;5036653;28;20415;-72
2023/01/06 09:20:50;;;;;;;1999.90;999.90;;;11.40;99.90;;;;;;5036377;28;20653;-72
2023/01/06 09:23:16;;;;;;;1999.90;999.90;;;11.20;99.90;;;;;;5036803;28;20218;-72
2023/01/06 09:25:41;;;;;;;1999.90;999.90;;;11.30;99.90;;;;;;5040161;28;20178;-72
2023/01/06 09:28:07;;;;;;;1999.90;999.90;;;11.30;99.90;;;;;;5038031;28;20168;-72
2023/01/06 09:30:32;;;;;;;1999.90;999.90;;;11.40;99.90;;;;;;5038177;28;20168;-72
2023/01/06 09:32:58;;;;;;;1999.90;999.90;;;11.30;99.90;;;;;;5038641;28;20176;-72
2023/01/06 09:35:23;;;;;;;1999.90;999.90;;;11.30;99.90;;;;;;5040467;28;20191;-72
2023/01/06 09:37:49;;;;;;;1999.90;999.90;;;11.30;99.90;;;;;;5040112;28;20169;-72
2023/01/06 09:40:18;;;;;;;1999.90;999.90;;;11.30;99.90;;;;;;5041481;28;20211;-72
2023/01/06 09:43:04;;;;;;;1999.90;999.90;;;11.30;99.90;;;;;;5042528;28;20172;-72
2023/01/06 09:45:42;;;;;;;1999.90;999.90;;;11.30;99.90;;;;;;5036955;28;20415;-72
2023/01/06 09:48:14;;;;;;;1999.90;999.90;;;11.40;99.90;;;;;;5037211;28;20403;-72
2023/01/06 09:50:47;;;;;;;1999.90;999.90;;;11.40;99.90;;;;;;5040013;28;20449;-72
2023/01/06 09:53:21;;;;;;;1999.90;999.90;;;11.20;99.90;;;;;;5037889;28;20998;-72
2023/01/06 09:55:56;;;;;;;1999.90;999.90;;;11.50;99.90;;;;;;5036698;28;20440;-72
2023/01/06 09:58:29;;;;;;;1999.90;999.90;;;11.50;99.90;;;;;;5031305;28;20403;-72
2023/01/06 10:00:59;;;;;;;1999.90;999.90;;;11.50;99.90;;;;;;5031480;28;20418;-72
2023/01/06 10:03:26;;;;;;;1999.90;999.90;;;11.40;99.90;;;;;;5031282;28;20545;-71
2023/01/06 10:06:22;;;;;;;1999.90;999.90;;;11.30;99.90;;;;;;5032431;28;20407;-71
2023/01/06 10:09:08;;;;;;;1999.90;999.90;;;11.10;99.90;;;;;;5031527;28;20414;-70
2023/01/06 10:11:36;;;;;;;1999.90;999.90;;;11.10;99.90;;;;;;5032297;28;20942;-70
2023/01/06 10:14:09;;;;;;;1999.90;999.90;;;11.00;99.90;;;;;;5032210;28;20546;-71
2023/01/06 10:16:46;;;;;;;1999.90;999.90;;;11.00;99.90;;;;;;5032091;28;20955;-71
2023/01/06 10:19:24;;;;;;;1999.90;999.90;;;11.10;99.90;;;;;;5031652;28;20418;-71
2023/01/06 10:22:07;;;;;;;1999.90;999.90;;;11.10;99.90;;;;;;5033515;28;20888;-71
2023/01/06 10:25:00;;;;;;;1999.90;999.90;;;11.10;99.90;;;;;;5035193;28;20437;-71
2023/01/06 10:27:32;;;;;;;1999.90;999.90;;;11.20;99.90;;;;;;5021788;28;20416;-68
2023/01/06 10:30:00;;;;;;;1999.90;999.90;;;11.20;99.90;;;;;;5022072;28;20827;-72
2023/01/06 10:32:30;;;;;;;1999.90;999.90;;;11.30;99.90;;;;;;5014744;28;20407;-71
2023/01/06 10:34:57;;;;;;;1999.90;999.90;;;11.30;99.90;;;;;;5015114;28;20460;-70
2023/01/06 10:37:36;;;;;;;1999.90;999.90;;;11.30;99.90;;;;;;5014487;28;20423;-70
2023/01/06 10:40:25;;;;;;;1999.90;999.90;;;11.40;99.90;;;;;;5015205;28;20418;-71
2023/01/06 10:43:02;;;;;;;1999.90;999.90;;;11.40;99.90;;;;;;5015513;28;20454;-70
2023/01/06 10:45:35;;;;;;;1999.90;999.90;;;11.60;99.90;;;;;;5015919;28;20490;-70
2023/01/06 10:48:03;;;;;;;1999.90;999.90;;;11.80;99.90;;;;;;5015585;28;20905;-70
2023/01/06 10:50:29;;;;;;;1999.90;999.90;;;11.90;99.90;;;;;;5015454;28;21093;-70
2023/01/06 10:52:55;;;;;;;1999.90;999.90;;;12.00;79.10;;;;;;5015924;28;20437;-70
2023/01/06 10:55:23;;;;;;;1999.90;999.90;;;12.10;48.40;;;;;;5015206;28;20437;-70
2023/01/06 10:57:51;;;;;;;1999.90;999.90;;;12.10;39.90;;;;;;5015259;28;20173;-71
2023/01/06 11:00:21;;;;;;;1999.90;999.90;;;12.20;32.90;;;;;;5015792;28;20411;-71
2023/01/06 11:02:53;;;;;;;1999.90;999.90;;;12.20;18.10;;;;;;5014693;28;20447;-70
2023/01/06 11:05:24;;;;;;;1999.90;999.90;;;12.30;1.00;;;;;;5014224;28;20619;-70
2023/01/06 11:08:11;;;;;;;1999.90;999.90;;;12.20;1.00;;;;;;5014773;28;20468;-70
2023/01/06 11:10:49;;;;;;;1999.90;999.90;;;12.20;1.00;;;;;;5014049;28;20419;-70
2023/01/06 11:13:35;;;;;;;1999.90;999.90;;;11.60;24.30;;;;;;5014228;28;20977;-71
2023/01/06 11:16:04;;;;;;;1999.90;999.90;;;12.10;2.50;;;;;;5013914;28;20461;-70
2023/01/06 11:18:32;;;;;;;1999.90;999.90;;;12.10;3.50;;;;;;5013988;28;20419;-71
2023/01/06 11:21:09;;;;;;;1999.90;999.90;;;12.20;12.80;;;;;;5014124;28;20784;-70
2023/01/06 11:23:40;;;;;;;1999.90;999.90;;;12.10;6.30;;;;;;5013768;28;20436;-70
2023/01/06 11:26:19;;;;;;;1999.90;999.90;;;12.10;15.70;;;;;;5013783;28;20495;-71
2023/01/06 11:28:48;;;;;;;1999.90;999.90;;;12.10;1.00;;;;;;5013935;28;20498;-71
2023/01/06 11:31:13;;;;;;;1999.90;999.90;;;12.00;23.80;;;;;;5014853;28;20416;-71
2023/01/06 11:34:00;;;;;;;1999.90;999.90;;;12.00;34.80;;;;;;5014599;28;20462;-71
2023/01/06 11:36:29;;;;;;;1999.90;999.90;;;11.80;76.00;;;;;;5017837;28;20169;-71
2023/01/06 11:39:02;;;;;;;1999.90;999.90;;;11.60;99.90;;;;;;5018192;28;20419;-71
2023/01/06 11:41:35;;;;;;;1999.90;999.90;;;11.50;99.90;;;;;;5016635;28;20408;-71
2023/01/06 11:44:15;;;;;;;1999.90;999.90;;;11.40;99.90;;;;;;5015441;28;20459;-71
2023/01/06 11:46:49;;;;;;;1999.90;999.90;;;11.40;99.90;;;;;;5019877;28;20415;-71
2023/01/06 11:49:25;;;;;;;1999.90;999.90;;;11.40;99.90;;;;;;5019540;28;20412;-71
2023/01/06 11:52:02;;;;;;;1999.90;999.90;;;11.30;99.90;;;;;;5016940;28;20525;-71
2023/01/06 11:54:32;;;;;;;1999.90;999.90;;;11.30;99.90;;;;;;5015164;28;20458;-71
2023/01/06 11:57:04;;;;;;;1999.90;999.90;;;11.30;99.90;;;;;;5013955;28;20436;-71
2023/01/06 11:59:45;;;;;;;1999.90;999.90;;;11.40;99.90;;;;;;5013159;28;20419;-71
2023/01/06 12:02:21;;;;;;;1999.90;999.90;;;11.40;99.90;;;;;;5013862;28;20628;-72
2023/01/06 12:04:51;;;;;;;1999.90;999.90;;;11.40;99.90;;;;;;5013112;28;20430;-70
2023/01/06 12:07:53;;;;;;;1999.90;999.90;;;11.40;99.90;;;;;;5014254;28;20448;-72
2023/01/06 12:10:24;;;;;;;1999.90;999.90;;;11.40;99.90;;;;;;5002534;28;20488;-71
2023/01/06 12:12:50;;;;;;;1999.90;999.90;;;11.40;99.90;;;;;;5014004;28;20403;-71
2023/01/06 12:15:18;;;;;;;1999.90;999.90;;;11.40;99.90;;;;;;5014503;28;20465;-71
2023/01/06 12:18:18;;;;;;;1999.90;999.90;;;11.30;99.90;;;;;;5013949;28;20185;-72
2023/01/06 12:20:49;;;;;;;1999.90;999.90;;;11.40;99.90;;;;;;5009873;28;20823;-72